Time;durP1;ratioP1;P1;durP2;ratioP2;P2;SDS_P1;SDS_P2;PMS_P1;PMS_P2;Temp;Humidity;BMP_temperature;BMP_pressure;BME280_temperature;BME280_humidity;BME280_pressure;Samples;Min_cycle;Max_cycle;Signal;HPM_P1;HPM_P2
2021/12/31 15:58:09;;;;;;;25.55;19.02;;;12.80;95.90;;;;;;6327194;22;20439;-79
2021/12/31 16:04:15;;;;;;;24.88;18.13;;;12.80;95.80;;;;;;6192164;22;20030;-76
2021/12/31 16:07:29;;;;;;;;;;;;;;;;;;;;;
2021/12/31 16:11:15;;;;;;;;;;;;;;;;;;;;;
2021/12/31 16:33:37;;;;;;;;;;;;;;;;;;;;;
2021/12/31 16:52:22;;;;;;;;;;;;;;;;;;;;;
2021/12/31 17:19:55;;;;;;;;;;;;;;;;;;;;;
2021/12/31 17:23:36;;;;;;;;;;;;;;;;;;;;;
2021/12/31 17:26:52;;;;;;;25.00;17.85;;;12.60;95.80;;;;;;5949066;23;20019;-83
2021/12/31 17:30:16;;;;;;;26.95;19.73;;;12.60;95.80;;;;;;6070706;23;20022;-80
2021/12/31 17:33:37;;;;;;;35.85;25.27;;;12.60;96.10;;;;;;6045979;23;20027;-82
2021/12/31 17:44:47;;;;;;;;;;;;;;;;;;;;;
2021/12/31 17:51:56;;;;;;;26.88;19.02;;;12.50;95.80;;;;;;6099658;23;20126;-83
2021/12/31 17:59:06;;;;;;;;;;;;;;;;;;;;;
2021/12/31 18:02:48;;;;;;;25.00;16.58;;;12.50;95.90;;;;;;5853486;24;20132;-83
2021/12/31 18:06:28;;;;;;;;;;;;;;;;;;;;;
2021/12/31 18:21:21;;;;;;;;;;;;;;;;;;;;;
2021/12/31 18:28:25;;;;;;;;;;;;;;;;;;;;;
2021/12/31 18:31:09;;;;;;;40.47;26.85;;;12.40;95.90;;;;;;5962978;23;20031;-80
2021/12/31 18:33:44;;;;;;;32.88;21.20;;;12.40;95.90;;;;;;6031996;23;20118;-79
2021/12/31 18:36:10;;;;;;;30.05;17.88;;;12.40;95.90;;;;;;6144031;23;20112;-80
2021/12/31 18:38:36;;;;;;;39.22;26.20;;;12.40;95.90;;;;;;6142467;23;20028;-81
2021/12/31 18:41:13;;;;;;;35.47;26.52;;;12.40;95.90;;;;;;6141734;23;20021;-81
2021/12/31 18:43:44;;;;;;;38.42;29.70;;;12.30;96.00;;;;;;6142836;23;20906;-82
2021/12/31 18:46:51;;;;;;;35.25;28.40;;;12.30;95.90;;;;;;6178562;22;20046;-82
2021/12/31 18:49:31;;;;;;;37.15;25.23;;;12.30;96.00;;;;;;6241863;22;20030;-82
2021/12/31 18:52:02;;;;;;;37.63;27.45;;;12.30;96.00;;;;;;6285061;22;20373;-80
2021/12/31 18:54:58;;;;;;;;;;;;;;;;;;;;;
2021/12/31 18:57:48;;;;;;;36.20;25.00;;;12.30;96.00;;;;;;6320034;22;20029;-81
2021/12/31 19:00:50;;;;;;;32.78;22.38;;;12.30;96.00;;;;;;6292180;22;20088;-81
2021/12/31 19:06:47;;;;;;;37.47;22.40;;;12.20;96.00;;;;;;6297808;22;20401;-83
2021/12/31 19:09:42;;;;;;;31.05;24.67;;;12.20;96.00;;;;;;6266924;22;20482;-80
2021/12/31 19:13:13;;;;;;;;;;;;;;;;;;;;;
2021/12/31 19:16:33;;;;;;;;;;;;;;;;;;;;;
2021/12/31 19:20:28;;;;;;;;;;;;;;;;;;;;;
2021/12/31 19:24:01;;;;;;;47.00;29.92;;;12.50;96.70;;;;;;6058100;23;20038;-79
2021/12/31 19:26:45;;;;;;;40.38;27.15;;;12.80;96.10;;;;;;6073186;23;20444;-78
2021/12/31 19:29:11;;;;;;;35.45;23.40;;;12.80;95.70;;;;;;6134999;23;20056;-80
2021/12/31 19:31:51;;;;;;;31.23;21.23;;;12.70;95.70;;;;;;6113218;23;20439;-80
2021/12/31 19:34:17;;;;;;;32.38;22.48;;;12.60;95.70;;;;;;6112327;23;20029;-79
2021/12/31 19:36:56;;;;;;;39.63;24.38;;;12.50;95.70;;;;;;6112814;23;20017;-78
2021/12/31 19:40:03;;;;;;;;;;;;;;;;;;;;;
2021/12/31 19:43:36;;;;;;;33.72;23.40;;;12.50;95.70;;;;;;6229061;22;20390;-80
2021/12/31 19:46:31;;;;;;;;;;;;;;;;;;;;;
2021/12/31 19:49:21;;;;;;;37.65;29.50;;;12.40;95.90;;;;;;6233144;22;20573;-81
2021/12/31 19:51:53;;;;;;;43.67;30.67;;;12.40;95.80;;;;;;6206305;22;20027;-79
2021/12/31 19:55:13;;;;;;;;;;;;;;;;;;;;;
2021/12/31 19:58:26;;;;;;;41.83;30.20;;;12.30;95.80;;;;;;6300796;22;20015;-83
2021/12/31 20:01:05;;;;;;;38.67;27.02;;;12.30;95.80;;;;;;6307335;22;20073;-81
2021/12/31 20:08:04;;;;;;;38.22;26.38;;;12.30;95.80;;;;;;6341681;22;20022;-82
2021/12/31 21:59:29;;;;;;;40.75;30.33;;;12.30;96.20;;;;;;6237503;22;20031;-77
2021/12/31 22:54:49;;;;;;;75.18;55.92;;;12.30;96.10;;;;;;6160350;23;20514;-82
2021/12/31 23:01:39;;;;;;;81.40;63.63;;;12.40;96.20;;;;;;6142851;23;20026;-81
2021/12/31 23:04:22;;;;;;;319.98;286.58;;;12.30;96.10;;;;;;6156856;23;20024;-78
2021/12/31 23:10:36;;;;;;;193.82;165.50;;;12.30;96.10;;;;;;6108918;23;20018;-78
2021/12/31 23:13:37;;;;;;;276.65;243.68;;;12.30;96.10;;;;;;6157272;23;20099;-78
2021/12/31 23:16:17;;;;;;;273.63;242.77;;;12.30;96.10;;;;;;6256875;22;20325;-78
2021/12/31 23:19:23;;;;;;;;;;;;;;;;;;;;;
2021/12/31 23:27:12;;;;;;;;;;;;;;;;;;;;;
2021/12/31 23:41:46;;;;;;;;;;;;;;;;;;;;;
